Time;durP1;ratioP1;P1;durP2;ratioP2;P2;SDS_P1;SDS_P2;PMS_P1;PMS_P2;Temp;Humidity;BMP_temperature;BMP_pressure;BME280_temperature;BME280_humidity;BME280_pressure;Samples;Min_cycle;Max_cycle;Signal;HPM_P1;HPM_P2
2023/06/30 02:01:31;;;;;;;6.43;5.00;;;;;;;;;;4666155;27;20081;-76
2023/06/30 02:03:58;;;;;;;7.65;4.03;;;;;;;;;;4353643;33;20408;-76
2023/06/30 02:06:24;;;;;;;12.57;5.60;;;;;;;;;;4354627;33;20400;-76
2023/06/30 02:08:50;;;;;;;8.07;4.00;;;;;;;;;;4353253;33;20048;-76
2023/06/30 02:11:17;;;;;;;7.82;4.18;;;;;;;;;;4354761;33;20116;-76
2023/06/30 02:13:43;;;;;;;9.63;5.00;;;;;;;;;;4353375;33;20408;-75
2023/06/30 02:16:09;;;;;;;9.70;4.85;;;;;;;;;;4354223;33;20052;-76
2023/06/30 02:18:39;;;;;;;13.00;3.50;;;;;;;;;;4354863;33;20077;-76
2023/06/30 02:21:06;;;;;;;9.23;4.25;;;;;;;;;;4350307;33;20052;-76
2023/06/30 02:23:32;;;;;;;6.75;5.05;;;;;;;;;;4355297;32;20556;-76
2023/06/30 02:25:58;;;;;;;6.05;4.32;;;;;;;;;;4356269;32;20044;-76
2023/06/30 02:28:25;;;;;;;13.50;4.47;;;;;;;;;;4357382;32;20073;-76
2023/06/30 02:30:54;;;;;;;6.10;4.80;;;;;;;;;;4357502;32;20073;-75
2023/06/30 02:33:21;;;;;;;8.65;4.62;;;;;;;;;;4356237;32;20048;-76
2023/06/30 02:35:46;;;;;;;8.77;5.05;;;;;;;;;;4357431;32;20062;-76
2023/06/30 02:38:13;;;;;;;4.78;4.37;;;;;;;;;;4356089;32;20039;-76
2023/06/30 02:40:39;;;;;;;11.30;4.70;;;;;;;;;;4357867;32;20450;-76
2023/06/30 02:43:05;;;;;;;12.02;4.20;;;;;;;;;;4324793;33;20048;-76
2023/06/30 02:45:31;;;;;;;7.53;4.57;;;;;;;;;;4324907;33;20063;-77
2023/06/30 02:47:58;;;;;;;8.15;4.30;;;;;;;;;;4325743;33;20415;-76
2023/06/30 02:50:28;;;;;;;6.90;4.70;;;;;;;;;;4329115;33;20027;-76
2023/06/30 02:52:56;;;;;;;10.85;5.32;;;;;;;;;;4338308;33;20539;-76
2023/06/30 02:55:22;;;;;;;17.05;5.97;;;;;;;;;;4339108;33;20089;-75
2023/06/30 02:57:48;;;;;;;13.07;5.95;;;;;;;;;;4338013;33;20048;-76
2023/06/30 03:00:15;;;;;;;7.22;4.93;;;;;;;;;;4340281;33;20073;-76
2023/06/30 03:02:41;;;;;;;12.90;5.30;;;;;;;;;;4338496;33;20060;-76
2023/06/30 03:05:08;;;;;;;6.45;4.43;;;;;;;;;;4339737;33;20108;-75
2023/06/30 03:07:34;;;;;;;5.40;4.47;;;;;;;;;;4322171;33;20520;-75
2023/06/30 03:10:01;;;;;;;10.15;5.00;;;;;;;;;;4322760;33;20056;-76
2023/06/30 03:12:27;;;;;;;6.78;4.32;;;;;;;;;;4324487;33;20544;-76
2023/06/30 03:14:53;;;;;;;6.72;4.47;;;;;;;;;;4348608;32;20571;-76
2023/06/30 03:17:20;;;;;;;12.05;4.60;;;;;;;;;;4335877;33;20053;-76
2023/06/30 03:19:46;;;;;;;8.95;5.00;;;;;;;;;;4321817;33;20048;-75
2023/06/30 03:22:12;;;;;;;6.07;4.55;;;;;;;;;;4324164;33;20053;-76
2023/06/30 03:24:39;;;;;;;10.93;5.28;;;;;;;;;;4323844;33;20120;-75
2023/06/30 03:27:06;;;;;;;9.82;5.32;;;;;;;;;;4323440;33;20070;-76
2023/06/30 03:29:32;;;;;;;11.02;5.32;;;;;;;;;;4325557;33;20407;-75
2023/06/30 03:31:58;;;;;;;7.12;5.25;;;;;;;;;;4324100;33;20430;-76
2023/06/30 03:34:24;;;;;;;7.53;5.47;;;;;;;;;;4327232;33;20070;-76
2023/06/30 03:36:51;;;;;;;8.20;5.45;;;;;;;;;;4338765;33;20064;-76
2023/06/30 03:39:24;;;;;;;8.50;5.12;;;;;;;;;;4350984;32;20389;-76
2023/06/30 03:41:50;;;;;;;11.12;5.70;;;;;;;;;;4350846;32;20077;-76
2023/06/30 03:44:17;;;;;;;16.27;5.32;;;;;;;;;;4353727;32;20841;-76
2023/06/30 03:46:44;;;;;;;16.65;6.60;;;;;;;;;;4318288;33;20052;-76
2023/06/30 03:49:10;;;;;;;11.38;5.82;;;;;;;;;;4334854;33;20048;-76
2023/06/30 03:51:36;;;;;;;10.80;4.55;;;;;;;;;;4338911;33;20068;-76
2023/06/30 03:54:02;;;;;;;9.57;4.97;;;;;;;;;;4335192;33;20195;-75
2023/06/30 03:56:29;;;;;;;5.65;4.47;;;;;;;;;;4338234;33;20084;-76
2023/06/30 03:58:56;;;;;;;7.10;4.78;;;;;;;;;;4339048;33;20151;-75
2023/06/30 04:01:22;;;;;;;16.00;5.22;;;;;;;;;;4344481;32;20059;-75
2023/06/30 04:03:51;;;;;;;11.85;5.12;;;;;;;;;;4336685;33;20381;-75
2023/06/30 04:06:17;;;;;;;13.65;5.20;;;;;;;;;;4330804;33;20067;-76
2023/06/30 04:08:44;;;;;;;7.78;4.15;;;;;;;;;;4323993;33;20041;-75
2023/06/30 04:11:11;;;;;;;8.25;4.18;;;;;;;;;;4329327;33;20052;-75
2023/06/30 04:13:40;;;;;;;13.27;4.43;;;;;;;;;;4323949;33;20141;-75
2023/06/30 04:16:07;;;;;;;51.60;30.90;;;;;;;;;;4319385;33;20048;-76
2023/06/30 04:18:33;;;;;;;11.80;4.82;;;;;;;;;;4324427;33;20710;-75
2023/06/30 04:21:00;;;;;;;7.35;4.25;;;;;;;;;;4323843;33;20056;-75
2023/06/30 04:23:26;;;;;;;12.13;4.47;;;;;;;;;;4321493;33;20122;-75
2023/06/30 04:25:52;;;;;;;8.15;3.92;;;;;;;;;;4322669;33;20505;-75
2023/06/30 04:28:18;;;;;;;6.25;4.10;;;;;;;;;;4321609;33;20044;-75
2023/06/30 04:30:51;;;;;;;8.35;3.80;;;;;;;;;;4321915;33;20505;-76
2023/06/30 04:33:17;;;;;;;6.82;3.90;;;;;;;;;;4314092;33;20074;-75
2023/06/30 04:35:43;;;;;;;12.50;4.20;;;;;;;;;;4319456;33;20062;-75
2023/06/30 04:38:10;;;;;;;12.27;4.15;;;;;;;;;;4323856;33;20552;-75
2023/06/30 04:40:36;;;;;;;4.95;3.30;;;;;;;;;;4324786;33;20055;-74
2023/06/30 04:43:02;;;;;;;7.85;4.40;;;;;;;;;;4338780;33;20397;-75
2023/06/30 04:45:29;;;;;;;11.07;4.15;;;;;;;;;;4338939;33;20078;-76
2023/06/30 04:47:55;;;;;;;7.80;3.65;;;;;;;;;;4322261;33;20040;-75
2023/06/30 04:50:23;;;;;;;14.48;3.55;;;;;;;;;;4291966;33;20060;-75
2023/06/30 04:52:48;;;;;;;20.42;4.45;;;;;;;;;;4294518;33;20406;-75
2023/06/30 04:55:15;;;;;;;8.35;3.78;;;;;;;;;;4293496;33;20455;-75
2023/06/30 04:57:41;;;;;;;6.00;4.07;;;;;;;;;;4278517;33;20138;-75
2023/06/30 05:00:08;;;;;;;14.00;4.03;;;;;;;;;;4280024;33;20552;-75
2023/06/30 05:02:34;;;;;;;10.73;3.65;;;;;;;;;;4276624;33;20388;-74
2023/06/30 05:05:00;;;;;;;7.18;3.30;;;;;;;;;;4279286;33;20545;-76
2023/06/30 05:07:26;;;;;;;11.68;4.03;;;;;;;;;;4279018;33;20041;-75
2023/06/30 05:09:53;;;;;;;10.57;3.45;;;;;;;;;;4280028;33;20456;-74
2023/06/30 05:12:25;;;;;;;9.95;3.65;;;;;;;;;;4277398;33;20033;-75
2023/06/30 05:14:52;;;;;;;9.18;4.03;;;;;;;;;;4264468;33;20060;-75
2023/06/30 05:17:18;;;;;;;5.95;3.22;;;;;;;;;;4265221;33;20053;-75
2023/06/30 05:19:44;;;;;;;5.03;3.47;;;;;;;;;;4276521;33;20049;-75
2023/06/30 05:22:10;;;;;;;14.73;3.83;;;;;;;;;;4290470;33;20430;-75
2023/06/30 05:24:36;;;;;;;6.35;2.87;;;;;;;;;;4293058;33;20045;-75
2023/06/30 05:27:02;;;;;;;12.18;3.08;;;;;;;;;;4293294;33;20099;-75
2023/06/30 05:29:30;;;;;;;13.57;3.42;;;;;;;;;;4316458;33;20858;-75
2023/06/30 05:31:57;;;;;;;16.85;4.28;;;;;;;;;;4323472;33;20098;-77
2023/06/30 05:34:23;;;;;;;5.95;2.95;;;;;;;;;;4322955;33;20040;-77
2023/06/30 05:36:49;;;;;;;9.35;2.95;;;;;;;;;;4321990;33;20087;-75
2023/06/30 05:39:15;;;;;;;10.50;2.75;;;;;;;;;;4279385;33;20067;-76
2023/06/30 05:41:41;;;;;;;5.18;2.50;;;;;;;;;;4279307;33;20049;-77
2023/06/30 05:44:07;;;;;;;4.90;2.40;;;;;;;;;;4278865;33;20059;-77
2023/06/30 05:46:34;;;;;;;9.80;3.37;;;;;;;;;;4279419;33;20045;-75
2023/06/30 05:49:05;;;;;;;4.82;2.92;;;;;;;;;;4277265;33;20598;-76
2023/06/30 05:51:32;;;;;;;12.23;2.62;;;;;;;;;;4279462;33;20570;-77
2023/06/30 05:53:59;;;;;;;10.95;2.65;;;;;;;;;;4278918;33;20045;-78
2023/06/30 05:56:25;;;;;;;4.25;2.00;;;;;;;;;;4314172;33;20033;-78
2023/06/30 05:58:51;;;;;;;6.22;2.58;;;;;;;;;;4321140;33;20044;-75
2023/06/30 06:01:17;;;;;;;4.07;2.80;;;;;;;;;;4325926;33;20095;-75
2023/06/30 06:03:44;;;;;;;11.00;2.42;;;;;;;;;;4325981;33;20048;-75
2023/06/30 06:06:10;;;;;;;7.20;2.53;;;;;;;;;;4295147;33;20037;-76
2023/06/30 06:08:38;;;;;;;4.68;2.47;;;;;;;;;;4297107;33;20045;-76
2023/06/30 06:11:04;;;;;;;4.32;2.60;;;;;;;;;;4318345;33;20082;-75
2023/06/30 06:13:34;;;;;;;5.45;2.70;;;;;;;;;;4325708;33;20061;-78
2023/06/30 06:16:00;;;;;;;6.28;2.37;;;;;;;;;;4326024;33;20837;-79
2023/06/30 06:18:27;;;;;;;4.57;2.40;;;;;;;;;;4325645;33;20080;-78
2023/06/30 06:20:53;;;;;;;8.70;2.28;;;;;;;;;;4323982;33;20134;-77
2023/06/30 06:23:20;;;;;;;5.12;2.80;;;;;;;;;;4326157;33;20074;-78
2023/06/30 06:25:46;;;;;;;6.97;2.78;;;;;;;;;;4326327;33;20402;-77
2023/06/30 06:28:12;;;;;;;5.70;2.58;;;;;;;;;;4325680;33;20044;-76
2023/06/30 06:30:38;;;;;;;4.28;2.45;;;;;;;;;;4326379;33;20068;-76
2023/06/30 06:33:04;;;;;;;7.10;2.45;;;;;;;;;;4319532;33;20189;-76
2023/06/30 06:35:31;;;;;;;4.18;2.03;;;;;;;;;;4322000;33;20210;-78
2023/06/30 06:37:57;;;;;;;3.37;2.70;;;;;;;;;;4326068;33;20471;-79
2023/06/30 06:40:23;;;;;;;9.70;2.40;;;;;;;;;;4326313;33;20052;-74
2023/06/30 06:42:50;;;;;;;4.78;2.33;;;;;;;;;;4327858;33;20071;-75
2023/06/30 06:45:20;;;;;;;6.05;2.08;;;;;;;;;;4333695;33;20445;-75
2023/06/30 06:48:05;;;;;;;2.58;2.30;;;;;;;;;;4325693;33;20045;-76
2023/06/30 06:50:31;;;;;;;3.08;2.53;;;;;;;;;;4315669;33;20402;-76
2023/06/30 06:52:57;;;;;;;7.05;2.72;;;;;;;;;;4324137;33;20109;-77
2023/06/30 06:55:23;;;;;;;4.10;2.45;;;;;;;;;;4323156;33;20407;-75
2023/06/30 06:57:50;;;;;;;7.18;2.37;;;;;;;;;;4325402;33;20062;-82
2023/06/30 07:00:16;;;;;;;9.55;2.25;;;;;;;;;;4311028;33;20078;-79
2023/06/30 07:02:43;;;;;;;7.20;2.25;;;;;;;;;;4309784;33;20037;-79
2023/06/30 07:05:09;;;;;;;4.87;2.35;;;;;;;;;;4313367;33;20462;-78
2023/06/30 07:07:36;;;;;;;10.25;2.80;;;;;;;;;;4308258;33;20120;-79
2023/06/30 07:10:02;;;;;;;8.65;1.90;;;;;;;;;;4312387;33;20029;-80
2023/06/30 07:12:28;;;;;;;2.60;2.03;;;;;;;;;;4323587;33;20105;-77
2023/06/30 07:14:54;;;;;;;14.20;2.28;;;;;;;;;;4317461;33;20491;-78
2023/06/30 07:17:21;;;;;;;5.03;2.28;;;;;;;;;;4324404;33;20054;-78
2023/06/30 07:19:53;;;;;;;7.55;2.50;;;;;;;;;;4323444;33;20032;-80
2023/06/30 07:22:21;;;;;;;5.97;2.65;;;;;;;;;;4323937;33;20056;-77
2023/06/30 07:24:47;;;;;;;3.53;2.95;;;;;;;;;;4301567;33;20033;-79
2023/06/30 07:27:13;;;;;;;9.05;2.12;;;;;;;;;;4295069;33;20861;-79
2023/06/30 07:29:40;;;;;;;7.68;2.60;;;;;;;;;;4295661;33;20045;-79
2023/06/30 07:32:06;;;;;;;11.73;2.62;;;;;;;;;;4295549;33;20037;-84
2023/06/30 07:34:33;;;;;;;9.10;2.45;;;;;;;;;;4328003;33;20413;-78
2023/06/30 07:37:00;;;;;;;3.83;2.25;;;;;;;;;;4338434;33;20048;-81
2023/06/30 07:39:26;;;;;;;3.62;2.28;;;;;;;;;;4339026;33;20033;-76
2023/06/30 07:41:52;;;;;;;6.72;2.28;;;;;;;;;;4327043;33;20484;-75
2023/06/30 07:44:20;;;;;;;3.60;2.87;;;;;;;;;;4323180;33;20070;-78
2023/06/30 07:46:46;;;;;;;12.80;2.92;;;;;;;;;;4331233;33;20566;-76
2023/06/30 07:49:12;;;;;;;2.72;2.08;;;;;;;;;;4337909;33;20159;-77
2023/06/30 07:51:39;;;;;;;5.40;2.20;;;;;;;;;;4336134;33;20054;-76
2023/06/30 07:54:07;;;;;;;7.70;2.65;;;;;;;;;;4342318;32;20032;-76
2023/06/30 07:56:33;;;;;;;5.85;2.78;;;;;;;;;;4317759;33;20498;-78
2023/06/30 07:58:59;;;;;;;3.67;2.45;;;;;;;;;;4320132;33;20048;-77
2023/06/30 08:01:26;;;;;;;9.40;3.05;;;;;;;;;;4329399;32;20105;-77
2023/06/30 08:03:53;;;;;;;6.90;2.67;;;;;;;;;;4314802;33;20048;-77
2023/06/30 08:06:19;;;;;;;5.85;2.65;;;;;;;;;;4324052;33;20063;-79
2023/06/30 08:08:45;;;;;;;10.57;2.35;;;;;;;;;;4318840;33;20592;-81
2023/06/30 08:11:11;;;;;;;5.97;2.30;;;;;;;;;;4319797;33;20044;-77
2023/06/30 08:13:37;;;;;;;7.03;2.22;;;;;;;;;;4323585;33;20510;-75
2023/06/30 08:16:03;;;;;;;8.02;2.08;;;;;;;;;;4322300;33;20052;-76
2023/06/30 08:18:30;;;;;;;7.55;2.15;;;;;;;;;;4321605;33;20037;-75
2023/06/30 08:20:56;;;;;;;22.83;1.98;;;;;;;;;;4322504;33;20052;-77
2023/06/30 08:23:22;;;;;;;4.40;1.65;;;;;;;;;;4322434;33;20033;-76
2023/06/30 08:25:49;;;;;;;6.60;2.42;;;;;;;;;;4323668;33;20045;-75
2023/06/30 08:28:15;;;;;;;5.28;2.15;;;;;;;;;;4334237;33;20058;-76
2023/06/30 08:30:41;;;;;;;2.75;2.33;;;;;;;;;;4332125;33;20531;-79
2023/06/30 08:33:07;;;;;;;12.15;1.90;;;;;;;;;;4336393;33;20087;-77
2023/06/30 08:35:33;;;;;;;6.28;1.75;;;;;;;;;;4348791;32;20763;-76
2023/06/30 08:37:59;;;;;;;2.47;1.65;;;;;;;;;;4355018;32;20143;-80
2023/06/30 08:40:26;;;;;;;3.22;2.10;;;;;;;;;;4347363;32;20397;-77
2023/06/30 08:42:53;;;;;;;2.60;1.77;;;;;;;;;;4323575;33;20429;-77
2023/06/30 08:45:23;;;;;;;4.57;2.47;;;;;;;;;;4306401;33;20045;-78
2023/06/30 08:47:49;;;;;;;2.42;1.80;;;;;;;;;;4304178;33;20079;-78
2023/06/30 08:50:16;;;;;;;1.60;1.40;;;;;;;;;;4308610;33;20502;-77
2023/06/30 08:52:43;;;;;;;3.08;1.83;;;;;;;;;;4307251;33;20360;-80
2023/06/30 08:55:10;;;;;;;4.57;1.85;;;;;;;;;;4296101;33;20059;-75
2023/06/30 08:57:36;;;;;;;9.82;2.20;;;;;;;;;;4303724;33;20067;-77
2023/06/30 09:00:02;;;;;;;3.55;1.50;;;;;;;;;;4308948;33;20983;-78
2023/06/30 09:02:29;;;;;;;4.85;1.65;;;;;;;;;;4291551;33;20049;-73
2023/06/30 09:04:55;;;;;;;1.75;1.50;;;;;;;;;;4292978;33;20059;-76
2023/06/30 09:07:28;;;;;;;7.95;2.20;;;;;;;;;;4293703;33;20440;-82
2023/06/30 09:09:56;;;;;;;2.22;1.87;;;;;;;;;;4291293;33;20108;-77
2023/06/30 09:12:24;;;;;;;8.10;1.77;;;;;;;;;;4292871;33;20100;-76
2023/06/30 09:14:51;;;;;;;1.65;1.52;;;;;;;;;;4318198;33;20106;-76
2023/06/30 09:17:17;;;;;;;8.32;1.80;;;;;;;;;;4305497;33;20492;-76
2023/06/30 09:19:44;;;;;;;2.90;1.73;;;;;;;;;;4307680;33;20052;-76
2023/06/30 09:22:11;;;;;;;7.07;2.05;;;;;;;;;;4307328;33;20401;-75
2023/06/30 09:24:37;;;;;;;4.45;1.70;;;;;;;;;;4308714;33;20057;-77
2023/06/30 09:27:04;;;;;;;4.78;1.65;;;;;;;;;;4306404;33;20421;-77
2023/06/30 09:29:31;;;;;;;2.95;1.60;;;;;;;;;;4290199;33;20407;-77
2023/06/30 09:32:01;;;;;;;4.65;1.50;;;;;;;;;;4262143;33;20636;-77
2023/06/30 09:34:27;;;;;;;2.08;1.80;;;;;;;;;;4253079;33;20278;-77
2023/06/30 09:36:54;;;;;;;4.78;2.10;;;;;;;;;;4255517;33;20665;-76
2023/06/30 09:39:24;;;;;;;6.62;1.90;;;;;;;;;;4259387;33;20046;-77
2023/06/30 09:41:51;;;;;;;3.10;1.75;;;;;;;;;;4261284;33;20090;-77
2023/06/30 09:44:20;;;;;;;3.80;1.73;;;;;;;;;;4259945;33;20115;-77
2023/06/30 09:46:47;;;;;;;1.70;1.60;;;;;;;;;;4222762;34;20082;-75
2023/06/30 09:49:23;;;;;;;2.70;2.03;;;;;;;;;;4223138;33;20393;-76
2023/06/30 09:51:50;;;;;;;4.35;2.37;;;;;;;;;;4217778;34;20065;-79
2023/06/30 09:54:18;;;;;;;8.50;1.80;;;;;;;;;;4213017;33;20473;-76
2023/06/30 09:56:45;;;;;;;1.75;1.65;;;;;;;;;;4227070;33;20054;-76
2023/06/30 09:59:12;;;;;;;3.35;1.62;;;;;;;;;;4240990;33;20080;-77
2023/06/30 10:01:39;;;;;;;2.85;1.90;;;;;;;;;;4239281;33;20113;-76
2023/06/30 10:04:06;;;;;;;3.40;1.75;;;;;;;;;;4290481;33;20406;-78
2023/06/30 10:06:33;;;;;;;6.25;1.70;;;;;;;;;;4273165;33;20062;-77
2023/06/30 10:09:01;;;;;;;2.33;1.83;;;;;;;;;;4283328;33;20114;-78
2023/06/30 10:11:28;;;;;;;3.10;1.90;;;;;;;;;;4278021;33;20101;-78
2023/06/30 10:13:56;;;;;;;3.33;2.03;;;;;;;;;;4279205;33;20467;-77
2023/06/30 10:16:22;;;;;;;2.40;1.95;;;;;;;;;;4276335;33;20077;-75
2023/06/30 10:18:49;;;;;;;5.78;2.08;;;;;;;;;;4307801;33;20668;-75
2023/06/30 10:21:16;;;;;;;3.83;2.00;;;;;;;;;;4310049;33;20141;-76
2023/06/30 10:23:43;;;;;;;6.43;1.92;;;;;;;;;;4309510;33;20045;-76
2023/06/30 10:26:12;;;;;;;7.22;1.95;;;;;;;;;;4310481;33;20182;-76
2023/06/30 10:28:39;;;;;;;3.12;1.62;;;;;;;;;;4312421;33;20048;-76
2023/06/30 10:31:05;;;;;;;5.87;2.22;;;;;;;;;;4307363;33;20315;-76
2023/06/30 10:33:31;;;;;;;4.12;1.90;;;;;;;;;;4309143;33;20141;-76
2023/06/30 10:35:58;;;;;;;12.82;2.20;;;;;;;;;;4309928;33;20490;-76
2023/06/30 10:38:24;;;;;;;7.37;2.17;;;;;;;;;;4333556;33;20454;-75
2023/06/30 10:41:19;;;;;;;4.85;2.37;;;;;;;;;;4340815;33;20077;-76
2023/06/30 10:44:08;;;;;;;3.78;2.12;;;;;;;;;;4323862;33;20048;-77
2023/06/30 10:46:48;;;;;;;1.80;1.70;;;;;;;;;;4323617;33;20048;-76
2023/06/30 10:49:24;;;;;;;5.55;2.80;;;;;;;;;;4326028;33;20450;-76
2023/06/30 10:51:51;;;;;;;2.17;2.08;;;;;;;;;;4321541;33;20048;-75
2023/06/30 10:54:24;;;;;;;3.30;2.40;;;;;;;;;;4327955;33;20084;-77
2023/06/30 10:56:51;;;;;;;7.72;3.12;;;;;;;;;;4328277;33;20060;-77
2023/06/30 10:59:20;;;;;;;3.75;2.10;;;;;;;;;;4326963;33;20087;-78
2023/06/30 11:02:05;;;;;;;3.58;2.12;;;;;;;;;;4468501;27;20057;-76
2023/06/30 11:04:39;;;;;;;3.62;1.77;;;;;;;;;;4306903;33;20468;-77
2023/06/30 11:07:06;;;;;;;2.95;2.03;;;;;;;;;;4307921;33;20431;-75
2023/06/30 11:09:48;;;;;;;4.72;2.40;;;;;;;;;;4262313;33;20116;-76
2023/06/30 11:12:15;;;;;;;1.80;1.70;;;;;;;;;;4261776;33;20128;-76
2023/06/30 11:14:52;;;;;;;3.83;1.75;;;;;;;;;;4267825;33;20067;-76
2023/06/30 11:17:18;;;;;;;9.40;1.98;;;;;;;;;;4279872;33;20122;-77
2023/06/30 11:20:03;;;;;;;2.90;2.08;;;;;;;;;;4279543;33;20079;-76
2023/06/30 11:22:32;;;;;;;2.15;2.05;;;;;;;;;;4274383;33;20069;-76
2023/06/30 11:25:03;;;;;;;1.95;1.40;;;;;;;;;;4279380;33;20165;-76
2023/06/30 11:27:32;;;;;;;2.05;1.90;;;;;;;;;;4275585;33;20054;-76
2023/06/30 11:30:01;;;;;;;2.17;1.98;;;;;;;;;;4275706;33;20196;-76
2023/06/30 11:32:28;;;;;;;3.10;2.08;;;;;;;;;;4276870;33;20041;-76
2023/06/30 11:34:56;;;;;;;4.32;2.53;;;;;;;;;;4277114;33;20369;-76
2023/06/30 11:37:23;;;;;;;6.50;2.05;;;;;;;;;;4279191;33;20075;-77
2023/06/30 11:39:54;;;;;;;6.18;2.55;;;;;;;;;;4279645;33;20169;-77
2023/06/30 11:42:21;;;;;;;5.32;2.12;;;;;;;;;;4280557;33;20079;-76
2023/06/30 11:44:51;;;;;;;2.92;1.80;;;;;;;;;;4276335;33;20097;-76
2023/06/30 11:47:17;;;;;;;9.20;2.80;;;;;;;;;;4306367;33;20102;-75
2023/06/30 11:49:47;;;;;;;3.55;1.67;;;;;;;;;;4325059;33;20091;-73
2023/06/30 11:52:14;;;;;;;2.10;2.00;;;;;;;;;;4324242;33;20052;-76
2023/06/30 11:54:40;;;;;;;2.20;2.00;;;;;;;;;;4324915;33;20056;-77
2023/06/30 11:57:07;;;;;;;3.72;1.83;;;;;;;;;;4324377;33;20074;-79
2023/06/30 11:59:34;;;;;;;8.63;5.65;;;;;;;;;;4315352;33;20061;-78
2023/06/30 12:02:02;;;;;;;13.48;4.43;;;;;;;;;;4312934;33;20474;-76
2023/06/30 12:04:35;;;;;;;7.22;2.15;;;;;;;;;;4321500;33;20066;-74
2023/06/30 12:07:05;;;;;;;3.75;2.00;;;;;;;;;;4322745;33;20071;-76
2023/06/30 12:09:33;;;;;;;2.45;1.85;;;;;;;;;;4321639;33;20082;-77
2023/06/30 12:12:00;;;;;;;3.97;2.55;;;;;;;;;;4322104;33;20067;-77
2023/06/30 12:14:27;;;;;;;2.95;2.40;;;;;;;;;;4322780;33;20058;-76
2023/06/30 12:16:54;;;;;;;1.83;1.70;;;;;;;;;;4323778;33;20036;-76
2023/06/30 12:19:25;;;;;;;2.40;1.87;;;;;;;;;;4323005;33;20440;-76
2023/06/30 12:22:01;;;;;;;2.72;2.30;;;;;;;;;;4321034;33;20044;-76
2023/06/30 12:24:32;;;;;;;2.72;1.90;;;;;;;;;;4306538;33;20054;-76
2023/06/30 12:26:57;;;;;;;5.07;1.83;;;;;;;;;;4308909;33;20089;-77
2023/06/30 12:29:30;;;;;;;8.60;1.70;;;;;;;;;;4303287;33;20071;-76
2023/06/30 12:31:56;;;;;;;6.65;1.80;;;;;;;;;;4308327;33;20056;-76
2023/06/30 12:34:32;;;;;;;3.17;2.10;;;;;;;;;;4303898;33;20067;-76
2023/06/30 12:37:00;;;;;;;1.80;1.70;;;;;;;;;;4279896;33;20061;-75
2023/06/30 12:39:27;;;;;;;2.65;1.83;;;;;;;;;;4274085;33;20081;-76
2023/06/30 12:41:53;;;;;;;1.90;1.60;;;;;;;;;;4281906;33;20402;-75
2023/06/30 12:44:20;;;;;;;3.45;1.87;;;;;;;;;;4278367;33;20053;-76
2023/06/30 12:46:58;;;;;;;1.83;1.65;;;;;;;;;;4271280;33;20086;-77
2023/06/30 12:49:27;;;;;;;3.30;1.75;;;;;;;;;;4277084;33;21066;-76
2023/06/30 12:51:54;;;;;;;4.30;2.00;;;;;;;;;;4276100;33;20033;-76
2023/06/30 12:54:21;;;;;;;2.37;2.08;;;;;;;;;;4282501;33;20078;-76
2023/06/30 12:56:47;;;;;;;1.67;1.58;;;;;;;;;;4297774;33;20092;-76
2023/06/30 12:59:14;;;;;;;9.68;2.10;;;;;;;;;;4294966;33;20049;-75
2023/06/30 13:01:40;;;;;;;4.97;1.60;;;;;;;;;;4298785;33;20042;-75
2023/06/30 13:04:07;;;;;;;4.45;1.62;;;;;;;;;;4301391;33;20172;-76
2023/06/30 13:06:32;;;;;;;2.40;1.55;;;;;;;;;;4299588;33;20160;-76
2023/06/30 13:08:59;;;;;;;6.28;1.80;;;;;;;;;;4300379;33;20434;-76
2023/06/30 13:11:25;;;;;;;2.10;2.00;;;;;;;;;;4319536;33;20025;-76
2023/06/30 13:13:51;;;;;;;2.53;1.62;;;;;;;;;;4325830;33;20179;-74
2023/06/30 13:16:18;;;;;;;2.33;1.77;;;;;;;;;;4325759;33;20106;-75
2023/06/30 13:18:44;;;;;;;3.67;2.37;;;;;;;;;;4323734;33;20397;-75
2023/06/30 13:21:10;;;;;;;1.87;1.77;;;;;;;;;;4325376;33;20033;-75
2023/06/30 13:23:36;;;;;;;4.75;1.70;;;;;;;;;;4322921;33;20369;-76
2023/06/30 13:26:03;;;;;;;7.32;2.55;;;;;;;;;;4325318;33;20045;-76
2023/06/30 13:28:30;;;;;;;4.07;1.55;;;;;;;;;;4325263;33;20070;-77
2023/06/30 13:30:56;;;;;;;5.62;2.20;;;;;;;;;;4324518;33;20036;-76
2023/06/30 13:33:23;;;;;;;3.60;1.73;;;;;;;;;;4324021;33;20040;-76
2023/06/30 13:35:49;;;;;;;4.05;1.87;;;;;;;;;;4323772;33;20070;-76
2023/06/30 13:38:15;;;;;;;2.08;1.80;;;;;;;;;;4325120;33;20092;-76
2023/06/30 13:40:41;;;;;;;2.80;1.65;;;;;;;;;;4323497;33;20365;-76
2023/06/30 13:43:08;;;;;;;4.40;1.70;;;;;;;;;;4324770;33;20056;-76
2023/06/30 13:45:34;;;;;;;6.50;1.80;;;;;;;;;;4323165;33;20092;-75
2023/06/30 13:48:01;;;;;;;2.60;2.20;;;;;;;;;;4309714;33;20070;-75
2023/06/30 13:50:27;;;;;;;6.85;2.92;;;;;;;;;;4307208;33;20047;-77
2023/06/30 13:52:54;;;;;;;3.97;2.50;;;;;;;;;;4312618;33;20476;-77
2023/06/30 13:55:20;;;;;;;2.10;2.00;;;;;;;;;;4309370;33;20174;-77
2023/06/30 13:57:46;;;;;;;9.25;1.83;;;;;;;;;;4313076;33;20040;-76
2023/06/30 14:00:12;;;;;;;4.95;1.65;;;;;;;;;;4311815;33;20070;-76
2023/06/30 14:02:39;;;;;;;2.25;2.03;;;;;;;;;;4312901;33;20058;-76
2023/06/30 14:05:05;;;;;;;3.78;1.90;;;;;;;;;;4310615;33;20401;-76
2023/06/30 14:07:32;;;;;;;2.78;1.92;;;;;;;;;;4316184;33;20068;-77
2023/06/30 14:09:58;;;;;;;4.45;2.25;;;;;;;;;;4308151;33;20505;-76
2023/06/30 14:12:24;;;;;;;4.55;2.10;;;;;;;;;;4281751;33;20331;-77
2023/06/30 14:14:50;;;;;;;5.03;1.87;;;;;;;;;;4290584;33;20067;-77
2023/06/30 14:17:17;;;;;;;10.32;2.20;;;;;;;;;;4288399;33;20130;-77
2023/06/30 14:19:43;;;;;;;3.30;2.30;;;;;;;;;;4287017;33;20645;-77
2023/06/30 14:22:09;;;;;;;3.72;1.62;;;;;;;;;;4296380;33;20445;-76
2023/06/30 14:24:42;;;;;;;3.03;2.10;;;;;;;;;;4298585;33;20147;-77
2023/06/30 14:27:08;;;;;;;2.10;1.80;;;;;;;;;;4298003;33;20049;-77
2023/06/30 14:29:36;;;;;;;7.90;2.10;;;;;;;;;;4284296;33;20196;-77
2023/06/30 14:32:03;;;;;;;5.57;1.83;;;;;;;;;;4297238;33;20049;-77
2023/06/30 14:34:29;;;;;;;4.55;1.95;;;;;;;;;;4297756;33;20086;-77
2023/06/30 14:36:55;;;;;;;1.92;1.80;;;;;;;;;;4302025;33;20053;-76
2023/06/30 14:39:22;;;;;;;3.85;2.25;;;;;;;;;;4305317;33;20041;-76
2023/06/30 14:41:55;;;;;;;3.03;2.72;;;;;;;;;;4302818;33;20156;-77
2023/06/30 14:44:21;;;;;;;9.25;4.85;;;;;;;;;;4325231;33;20052;-78
2023/06/30 14:46:47;;;;;;;2.78;2.42;;;;;;;;;;4331295;33;20099;-78
2023/06/30 14:49:14;;;;;;;4.45;2.60;;;;;;;;;;4330885;33;20040;-78
2023/06/30 14:51:41;;;;;;;5.53;2.03;;;;;;;;;;4330135;33;20130;-77
2023/06/30 14:54:07;;;;;;;2.10;1.98;;;;;;;;;;4329114;33;20106;-78
2023/06/30 14:56:34;;;;;;;2.22;2.12;;;;;;;;;;4324871;33;20087;-77
2023/06/30 14:59:01;;;;;;;4.43;2.40;;;;;;;;;;4324174;33;20087;-76
2023/06/30 15:01:28;;;;;;;7.72;2.00;;;;;;;;;;4322222;33;20052;-76
2023/06/30 15:03:54;;;;;;;3.12;2.53;;;;;;;;;;4328278;33;20086;-77
2023/06/30 15:06:20;;;;;;;2.70;2.37;;;;;;;;;;4328524;33;20120;-76
2023/06/30 15:08:46;;;;;;;2.95;2.42;;;;;;;;;;4323435;33;20059;-77
2023/06/30 15:11:13;;;;;;;2.83;2.37;;;;;;;;;;4324767;33;20060;-76
2023/06/30 15:13:38;;;;;;;2.65;2.45;;;;;;;;;;4324990;33;20063;-77
2023/06/30 15:16:09;;;;;;;4.00;2.83;;;;;;;;;;4322030;33;20462;-77
2023/06/30 15:18:35;;;;;;;2.60;2.05;;;;;;;;;;4324382;33;20066;-78
2023/06/30 15:21:01;;;;;;;7.93;2.10;;;;;;;;;;4324790;33;20104;-78
2023/06/30 15:23:27;;;;;;;13.65;2.40;;;;;;;;;;4323991;33;20083;-77
2023/06/30 15:25:54;;;;;;;12.90;9.10;;;;;;;;;;4324238;33;20052;-77
2023/06/30 15:28:20;;;;;;;15.13;2.87;;;;;;;;;;4325833;33;21405;-79
2023/06/30 15:30:47;;;;;;;6.15;2.55;;;;;;;;;;4308606;33;20110;-77
2023/06/30 15:33:14;;;;;;;5.72;2.97;;;;;;;;;;4308242;33;20044;-76
2023/06/30 15:35:41;;;;;;;6.00;2.35;;;;;;;;;;4307673;33;20033;-76
2023/06/30 15:38:09;;;;;;;4.80;2.62;;;;;;;;;;4308121;33;20079;-77
2023/06/30 15:40:36;;;;;;;1.95;1.73;;;;;;;;;;4310349;33;20482;-77
2023/06/30 15:43:02;;;;;;;4.68;2.53;;;;;;;;;;4309667;33;20063;-76
2023/06/30 15:45:30;;;;;;;2.42;2.22;;;;;;;;;;4308620;33;20103;-75
2023/06/30 15:47:57;;;;;;;5.20;2.15;;;;;;;;;;4308061;33;20050;-76
2023/06/30 15:50:23;;;;;;;2.20;2.00;;;;;;;;;;4309372;33;20060;-77
2023/06/30 15:52:50;;;;;;;15.07;2.70;;;;;;;;;;4308190;33;20071;-76
2023/06/30 15:55:16;;;;;;;4.55;2.15;;;;;;;;;;4308986;33;20071;-75
2023/06/30 15:57:42;;;;;;;2.25;2.05;;;;;;;;;;4308630;33;20049;-77
2023/06/30 16:00:09;;;;;;;5.40;2.05;;;;;;;;;;4307233;33;20516;-76
2023/06/30 16:02:38;;;;;;;5.90;2.10;;;;;;;;;;4319979;33;20041;-76
2023/06/30 16:05:08;;;;;;;2.58;2.37;;;;;;;;;;4324363;33;20045;-77
2023/06/30 16:07:34;;;;;;;6.25;2.50;;;;;;;;;;4322252;33;20052;-76
2023/06/30 16:10:02;;;;;;;4.43;2.47;;;;;;;;;;4319706;33;20537;-76
2023/06/30 16:12:28;;;;;;;7.75;2.80;;;;;;;;;;4322368;33;20374;-76
2023/06/30 16:14:57;;;;;;;2.42;2.22;;;;;;;;;;4325692;33;20486;-75
2023/06/30 16:17:23;;;;;;;3.50;2.58;;;;;;;;;;4325872;33;20067;-75
2023/06/30 16:19:49;;;;;;;6.12;2.80;;;;;;;;;;4311474;33;20064;-76
2023/06/30 16:22:15;;;;;;;5.32;3.30;;;;;;;;;;4307255;33;20446;-75
2023/06/30 16:24:42;;;;;;;8.45;2.25;;;;;;;;;;4312021;33;20436;-76
2023/06/30 16:27:09;;;;;;;11.23;2.85;;;;;;;;;;4314550;33;20523;-76
2023/06/30 16:29:35;;;;;;;13.88;3.12;;;;;;;;;;4313850;33;20048;-76
2023/06/30 16:32:02;;;;;;;2.33;1.98;;;;;;;;;;4313002;33;20123;-76
2023/06/30 16:34:29;;;;;;;4.30;1.98;;;;;;;;;;4316683;33;20048;-76
2023/06/30 16:36:55;;;;;;;8.10;2.75;;;;;;;;;;4316114;33;20033;-75
2023/06/30 16:39:21;;;;;;;8.20;2.83;;;;;;;;;;4314770;33;20060;-75
2023/06/30 16:41:47;;;;;;;8.95;2.47;;;;;;;;;;4316245;33;21011;-75